Time;durP1;ratioP1;P1;durP2;ratioP2;P2;SDS_P1;SDS_P2;PMS_P1;PMS_P2;Temp;Humidity;BMP_temperature;BMP_pressure;BME280_temperature;BME280_humidity;BME280_pressure;Samples;Min_cycle;Max_cycle;Signal;HPM_P1;HPM_P2
2023/12/10 00:00:45;;;;;;;2.25;2.05;;;;;;;3.69;100.00;99428.34;5065396;28;20733;-79
2023/12/10 00:03:14;;;;;;;1.92;1.58;;;;;;;3.61;100.00;99415.13;5071294;28;20208;-78
2023/12/10 00:05:43;;;;;;;2.55;2.17;;;;;;;3.59;100.00;99422.50;5070982;28;20195;-77
2023/12/10 00:08:12;;;;;;;5.88;2.42;;;;;;;3.66;100.00;99425.25;5048663;28;20572;-78
2023/12/10 00:10:43;;;;;;;3.75;2.53;;;;;;;3.75;100.00;99414.22;5067947;28;20212;-79
2023/12/10 00:13:12;;;;;;;4.45;2.03;;;;;;;3.77;100.00;99417.53;5059915;28;20236;-78
2023/12/10 00:15:41;;;;;;;5.28;3.55;;;;;;;3.72;100.00;99411.94;5068337;28;20196;-78
2023/12/10 00:18:09;;;;;;;2.72;2.45;;;;;;;3.79;100.00;99418.13;5069448;28;20224;-77
2023/12/10 00:20:38;;;;;;;2.72;2.00;;;;;;;3.68;100.00;99410.63;5069555;28;20216;-78
2023/12/10 00:23:11;;;;;;;3.22;2.08;;;;;;;3.70;100.00;99407.78;5050348;28;20266;-78
2023/12/10 00:25:45;;;;;;;1.95;1.13;;;;;;;3.63;100.00;99415.75;5064533;28;20660;-78
2023/12/10 00:28:14;;;;;;;3.30;2.35;;;;;;;3.64;100.00;99408.53;5067174;28;20211;-77
2023/12/10 00:30:43;;;;;;;3.10;1.88;;;;;;;3.65;100.00;99411.03;5047477;28;20232;-77
2023/12/10 00:33:12;;;;;;;3.25;2.63;;;;;;;3.76;100.00;99413.19;5062420;28;20212;-79
2023/12/10 00:35:41;;;;;;;2.20;2.00;;;;;;;3.75;100.00;99406.19;5071866;28;20185;-78
2023/12/10 00:38:10;;;;;;;5.10;2.55;;;;;;;3.72;100.00;99411.09;5046781;28;20192;-77
2023/12/10 00:40:38;;;;;;;5.30;3.20;;;;;;;3.86;100.00;99413.69;5050863;28;20235;-78
2023/12/10 00:43:10;;;;;;;3.53;2.38;;;;;;;3.85;100.00;99416.53;5060528;28;20222;-77
2023/12/10 00:45:39;;;;;;;2.05;1.85;;;;;;;3.90;100.00;99409.59;5061863;28;20244;-78
2023/12/10 00:48:08;;;;;;;1.67;1.40;;;;;;;3.82;100.00;99407.06;5062729;28;20196;-77
2023/12/10 00:50:37;;;;;;;2.55;2.35;;;;;;;3.77;100.00;99409.50;5046396;28;20200;-77
2023/12/10 00:53:07;;;;;;;2.47;2.10;;;;;;;3.88;100.00;99400.91;5065115;28;20258;-77
2023/12/10 00:55:35;;;;;;;3.88;3.45;;;;;;;3.83;100.00;99408.69;5064997;28;20197;-77
2023/12/10 00:58:04;;;;;;;3.58;2.88;;;;;;;3.72;100.00;99395.88;5067929;28;20193;-78
2023/12/10 01:00:34;;;;;;;5.03;2.60;;;;;;;3.90;100.00;99400.72;5065274;28;20200;-78
2023/12/10 01:03:05;;;;;;;4.88;2.55;;;;;;;3.79;100.00;99404.75;5067906;28;20287;-79
2023/12/10 01:05:35;;;;;;;3.75;3.10;;;;;;;3.77;100.00;99404.16;5064810;28;20188;-78
2023/12/10 01:08:05;;;;;;;2.70;2.33;;;;;;;3.82;100.00;99400.88;5068079;28;20356;-77
2023/12/10 01:10:34;;;;;;;4.93;1.67;;;;;;;3.76;100.00;99389.09;5063347;28;20195;-77
2023/12/10 01:13:03;;;;;;;2.28;1.45;;;;;;;3.80;100.00;99397.56;5062191;28;20706;-78
2023/12/10 01:15:32;;;;;;;2.40;1.55;;;;;;;3.69;100.00;99390.91;5064285;28;20264;-78
2023/12/10 01:18:02;;;;;;;4.47;3.10;;;;;;;3.64;100.00;99387.97;5061933;28;20258;-77
2023/12/10 01:20:33;;;;;;;4.45;3.03;;;;;;;3.65;100.00;99400.34;5064616;28;20211;-78
2023/12/10 01:23:04;;;;;;;2.83;2.15;;;;;;;3.62;100.00;99395.38;5061922;28;20209;-78
2023/12/10 01:25:32;;;;;;;1.60;1.42;;;;;;;3.63;100.00;99394.34;5058385;28;20201;-79
2023/12/10 01:28:02;;;;;;;3.78;1.75;;;;;;;3.68;100.00;99391.09;5064209;28;20227;-78
2023/12/10 01:30:31;;;;;;;4.47;2.67;;;;;;;3.63;100.00;99401.56;5063123;28;20196;-78
2023/12/10 01:33:02;;;;;;;4.00;3.25;;;;;;;3.66;100.00;99390.47;5066892;28;20217;-79
2023/12/10 01:35:31;;;;;;;2.95;2.47;;;;;;;3.81;100.00;99394.72;5070982;28;20207;-78
2023/12/10 01:38:01;;;;;;;5.95;2.40;;;;;;;3.67;100.00;99403.66;5069337;28;20216;-79
2023/12/10 01:40:30;;;;;;;4.97;2.25;;;;;;;3.70;100.00;99403.25;5049203;28;20219;-78
2023/12/10 01:42:59;;;;;;;4.15;2.45;;;;;;;3.63;100.00;99401.56;5069629;28;20230;-77
2023/12/10 01:45:28;;;;;;;4.70;3.80;;;;;;;3.63;100.00;99420.28;5075886;28;20168;-79
2023/12/10 01:47:57;;;;;;;3.78;2.22;;;;;;;3.55;100.00;99415.06;5076270;28;20177;-77
2023/12/10 01:50:27;;;;;;;2.65;1.35;;;;;;;3.50;100.00;99429.00;5075212;28;20199;-78
2023/12/10 01:52:58;;;;;;;4.70;2.88;;;;;;;3.56;100.00;99430.09;5074254;28;20220;-77
2023/12/10 01:55:27;;;;;;;3.95;3.75;;;;;;;3.62;100.00;99442.69;5066742;28;20211;-78
2023/12/10 01:57:56;;;;;;;2.45;2.25;;;;;;;3.61;100.00;99441.88;5066148;28;20200;-78
2023/12/10 02:00:25;;;;;;;5.68;2.53;;;;;;;3.63;100.00;99439.81;5069047;28;20195;-77
2023/12/10 02:02:55;;;;;;;2.38;2.10;;;;;;;3.55;100.00;99431.09;5079648;28;20215;-77
2023/12/10 02:05:26;;;;;;;1.70;1.58;;;;;;;3.57;100.00;99429.06;5090555;28;20219;-75
2023/12/10 02:07:55;;;;;;;3.58;2.03;;;;;;;3.44;100.00;99429.75;5101163;28;20171;-76
2023/12/10 02:10:24;;;;;;;5.10;2.55;;;;;;;3.46;100.00;99427.75;5100812;28;20163;-75
2023/12/10 02:12:54;;;;;;;8.15;3.17;;;;;;;3.47;100.00;99437.41;5100270;28;20216;-78
2023/12/10 02:15:23;;;;;;;2.35;2.15;;;;;;;3.37;100.00;99426.22;5095346;28;20180;-78
2023/12/10 02:17:52;;;;;;;2.33;2.13;;;;;;;3.34;100.00;99429.28;5096008;28;20202;-77
2023/12/10 02:20:22;;;;;;;4.05;2.47;;;;;;;3.30;100.00;99417.28;5096664;28;20184;-78
2023/12/10 02:23:08;;;;;;;3.60;1.60;;;;;;;3.25;100.00;99431.22;5076203;28;20212;-78
2023/12/10 02:25:39;;;;;;;3.80;2.65;;;;;;;3.25;100.00;99438.41;5091606;28;20176;-78
2023/12/10 02:28:10;;;;;;;1.90;1.00;;;;;;;3.19;100.00;99441.88;5075286;28;20208;-77
2023/12/10 02:30:39;;;;;;;7.80;1.55;;;;;;;3.17;100.00;99444.72;5066957;28;20177;-77
2023/12/10 02:33:08;;;;;;;3.55;1.20;;;;;;;3.14;100.00;99438.94;5068656;28;20204;-78
2023/12/10 02:35:37;;;;;;;2.80;2.03;;;;;;;3.05;100.00;99436.38;5063311;28;20671;-78
2023/12/10 02:38:06;;;;;;;3.05;1.92;;;;;;;3.12;100.00;99436.47;5044144;28;20201;-78
2023/12/10 02:40:36;;;;;;;1.70;1.50;;;;;;;3.06;100.00;99432.69;5080051;28;20192;-79
2023/12/10 02:43:05;;;;;;;4.57;1.15;;;;;;;3.13;100.00;99439.97;5086811;28;20254;-78
2023/12/10 02:45:34;;;;;;;2.35;1.30;;;;;;;3.29;100.00;99437.84;5047317;28;20202;-77
2023/12/10 02:48:03;;;;;;;2.28;1.88;;;;;;;3.10;100.00;99440.34;5047863;28;20197;-78
2023/12/10 02:50:33;;;;;;;2.40;1.98;;;;;;;2.98;100.00;99440.84;5046035;28;20606;-79
2023/12/10 02:53:01;;;;;;;2.97;1.55;;;;;;;3.08;100.00;99439.69;5044580;28;20213;-80
2023/12/10 02:55:31;;;;;;;1.73;1.60;;;;;;;3.18;100.00;99434.88;5045963;28;20232;-78
2023/12/10 02:58:01;;;;;;;2.40;1.20;;;;;;;3.22;100.00;99436.16;5046724;28;20193;-78
2023/12/10 03:00:34;;;;;;;1.60;1.50;;;;;;;3.09;100.00;99426.16;5046136;28;20186;-78
2023/12/10 03:03:03;;;;;;;2.45;1.70;;;;;;;3.09;100.00;99436.00;5043739;28;20233;-78
2023/12/10 03:05:32;;;;;;;3.47;2.13;;;;;;;3.16;100.00;99442.25;5066522;28;20177;-78
2023/12/10 03:08:01;;;;;;;3.00;2.08;;;;;;;3.16;100.00;99443.06;5066444;28;20287;-77
2023/12/10 03:10:30;;;;;;;4.80;4.03;;;;;;;2.98;100.00;99445.34;5065940;28;20197;-78
2023/12/10 03:13:00;;;;;;;3.95;1.75;;;;;;;3.02;100.00;99450.13;5065188;28;20205;-77
2023/12/10 03:15:29;;;;;;;2.47;2.03;;;;;;;2.98;100.00;99446.19;5070550;28;20214;-77
2023/12/10 03:17:58;;;;;;;1.48;1.38;;;;;;;2.99;100.00;99457.69;5073477;28;20177;-77
2023/12/10 03:20:28;;;;;;;5.13;2.30;;;;;;;3.06;100.00;99447.91;5077839;28;20193;-77
2023/12/10 03:22:56;;;;;;;2.22;2.03;;;;;;;3.09;100.00;99465.41;5077939;28;20224;-77
2023/12/10 03:25:25;;;;;;;1.90;1.13;;;;;;;3.10;100.00;99470.56;5073816;28;20185;-78
2023/12/10 03:27:54;;;;;;;3.65;1.75;;;;;;;3.14;100.00;99477.19;5062581;28;20205;-77
2023/12/10 03:30:25;;;;;;;6.03;3.63;;;;;;;3.17;100.00;99465.28;5066346;28;20231;-78
2023/12/10 03:32:54;;;;;;;4.55;1.98;;;;;;;3.16;100.00;99468.97;5046631;28;20694;-77
2023/12/10 03:35:23;;;;;;;3.53;2.00;;;;;;;3.11;100.00;99471.38;5064180;28;20228;-77
2023/12/10 03:37:52;;;;;;;2.83;2.13;;;;;;;3.11;100.00;99471.38;5064353;28;20257;-77
2023/12/10 03:40:21;;;;;;;3.85;1.70;;;;;;;3.00;100.00;99476.19;5065220;28;20215;-78
2023/12/10 03:42:49;;;;;;;2.28;2.08;;;;;;;3.05;100.00;99471.13;5074572;28;20201;-78
2023/12/10 03:45:18;;;;;;;2.15;1.95;;;;;;;3.06;100.00;99474.63;5076891;28;20200;-76
2023/12/10 03:47:49;;;;;;;3.03;2.25;;;;;;;2.99;100.00;99474.56;5077597;28;20199;-78
2023/12/10 03:50:18;;;;;;;2.40;1.88;;;;;;;3.05;100.00;99479.13;5072780;28;20185;-78
2023/12/10 03:52:47;;;;;;;3.15;2.00;;;;;;;3.02;100.00;99479.53;5071919;28;20213;-79
2023/12/10 03:55:17;;;;;;;1.95;1.80;;;;;;;3.19;100.00;99476.63;5049272;28;20574;-78
2023/12/10 03:57:48;;;;;;;1.75;1.30;;;;;;;3.31;100.00;99483.13;5054226;28;20702;-78
2023/12/10 04:00:18;;;;;;;1.73;1.35;;;;;;;3.36;100.00;99486.06;5066232;28;20185;-78
2023/12/10 04:02:48;;;;;;;1.65;1.25;;;;;;;3.28;100.00;99484.34;5068499;28;20204;-77
2023/12/10 04:05:17;;;;;;;1.85;1.38;;;;;;;3.40;100.00;99492.69;5063718;28;20188;-77
2023/12/10 04:07:49;;;;;;;4.18;2.13;;;;;;;3.26;100.00;99493.56;5060702;28;20260;-78
2023/12/10 04:10:18;;;;;;;3.85;2.25;;;;;;;3.13;100.00;99490.75;5065796;28;20177;-77
2023/12/10 04:12:47;;;;;;;2.42;1.23;;;;;;;3.11;100.00;99498.94;5060195;28;20216;-77
2023/12/10 04:15:16;;;;;;;3.88;1.80;;;;;;;3.27;100.00;99489.88;5060576;28;20189;-77
2023/12/10 04:17:45;;;;;;;2.40;2.30;;;;;;;3.25;100.00;99494.56;5064052;28;20181;-78
2023/12/10 04:20:15;;;;;;;3.45;1.92;;;;;;;3.19;100.00;99496.19;5066013;28;20219;-78
2023/12/10 04:22:44;;;;;;;1.90;1.15;;;;;;;3.27;100.00;99497.88;5066137;28;20192;-78
2023/12/10 04:25:13;;;;;;;2.22;1.77;;;;;;;3.22;100.00;99502.97;5069317;28;20218;-78
2023/12/10 04:27:41;;;;;;;3.75;2.58;;;;;;;3.10;100.00;99504.50;5086028;28;20191;-78
2023/12/10 04:30:11;;;;;;;2.08;1.85;;;;;;;3.18;100.00;99507.03;5086898;28;20172;-78
2023/12/10 04:32:41;;;;;;;3.85;2.38;;;;;;;3.18;100.00;99512.38;5073371;28;20767;-78
2023/12/10 04:35:10;;;;;;;3.13;2.40;;;;;;;3.23;100.00;99523.34;5038605;28;20217;-79
2023/12/10 04:37:41;;;;;;;3.17;1.75;;;;;;;3.22;100.00;99519.00;5034509;28;20197;-80
2023/12/10 04:40:11;;;;;;;1.70;1.60;;;;;;;3.20;100.00;99513.00;5029888;28;20178;-78
2023/12/10 04:42:40;;;;;;;2.17;2.00;;;;;;;3.23;100.00;99520.69;5039005;28;20292;-79
2023/12/10 04:45:10;;;;;;;2.78;1.60;;;;;;;3.40;100.00;99514.91;5044031;28;20196;-78
2023/12/10 04:47:39;;;;;;;3.15;2.88;;;;;;;3.44;100.00;99515.34;5040834;28;20185;-78
2023/12/10 04:50:08;;;;;;;6.78;4.35;;;;;;;3.37;100.00;99504.59;5060817;28;20747;-78
2023/12/10 04:52:37;;;;;;;4.13;3.10;;;;;;;3.38;100.00;99510.78;5065513;28;20238;-78
2023/12/10 04:55:08;;;;;;;3.28;3.00;;;;;;;3.28;100.00;99511.06;5048785;28;20606;-78
2023/12/10 04:57:36;;;;;;;2.17;1.95;;;;;;;3.37;100.00;99525.16;5068270;28;20263;-77
2023/12/10 05:00:08;;;;;;;2.20;1.50;;;;;;;3.43;100.00;99519.88;5046932;28;20279;-78
2023/12/10 05:02:37;;;;;;;5.47;4.13;;;;;;;3.49;100.00;99528.97;5066528;28;20205;-78
2023/12/10 05:05:07;;;;;;;4.47;1.92;;;;;;;3.52;100.00;99522.44;5046575;28;20243;-77
2023/12/10 05:07:37;;;;;;;4.07;1.98;;;;;;;3.39;100.00;99523.09;5062595;28;20192;-77
2023/12/10 05:10:08;;;;;;;2.65;2.05;;;;;;;3.47;100.00;99525.69;5057999;28;20197;-78
2023/12/10 05:12:37;;;;;;;2.33;1.58;;;;;;;3.58;100.00;99529.69;5043014;28;20224;-77
2023/12/10 05:15:07;;;;;;;3.42;2.20;;;;;;;3.57;100.00;99539.56;5065678;28;20216;-77
2023/12/10 05:17:36;;;;;;;3.08;1.90;;;;;;;3.61;100.00;99542.69;5063717;28;20197;-78
2023/12/10 05:20:06;;;;;;;3.80;2.53;;;;;;;3.60;100.00;99551.72;5066547;28;20177;-78
2023/12/10 05:22:34;;;;;;;2.75;2.25;;;;;;;3.45;100.00;99551.75;5066155;28;20208;-78
2023/12/10 05:25:04;;;;;;;1.90;1.42;;;;;;;3.62;100.00;99553.19;5088296;28;20224;-77
2023/12/10 05:27:34;;;;;;;2.80;2.40;;;;;;;3.65;100.00;99550.13;5097547;28;20160;-77
2023/12/10 05:30:03;;;;;;;6.15;2.35;;;;;;;3.57;100.00;99549.44;5097656;28;20167;-77
2023/12/10 05:32:32;;;;;;;4.40;2.25;;;;;;;3.69;100.00;99548.72;5084259;28;20212;-78
2023/12/10 05:35:00;;;;;;;5.93;4.40;;;;;;;3.65;100.00;99550.13;5047192;28;20245;-78
2023/12/10 05:37:29;;;;;;;3.15;2.50;;;;;;;3.78;100.00;99558.28;5063081;28;20339;-79
2023/12/10 05:39:58;;;;;;;4.28;2.92;;;;;;;3.67;100.00;99560.66;5065857;28;20177;-78
2023/12/10 05:42:27;;;;;;;5.45;2.75;;;;;;;3.84;100.00;99570.91;5049146;28;20283;-78
2023/12/10 05:44:59;;;;;;;2.20;2.00;;;;;;;3.85;100.00;99569.06;5065777;28;20180;-77
2023/12/10 05:47:28;;;;;;;1.65;1.55;;;;;;;3.92;100.00;99578.00;5065571;28;20172;-78
2023/12/10 05:49:57;;;;;;;3.20;2.40;;;;;;;3.89;100.00;99571.16;5064176;28;20175;-78
2023/12/10 05:52:26;;;;;;;4.75;3.17;;;;;;;3.78;100.00;99571.66;5049303;28;20220;-77
2023/12/10 05:54:55;;;;;;;2.72;1.88;;;;;;;3.99;100.00;99584.22;5065348;28;20197;-78
2023/12/10 05:57:23;;;;;;;3.58;2.13;;;;;;;3.94;100.00;99586.66;5063337;28;20228;-78
2023/12/10 05:59:52;;;;;;;8.50;3.72;;;;;;;3.96;100.00;99589.16;5066785;28;20259;-78
2023/12/10 06:02:23;;;;;;;7.70;4.38;;;;;;;3.99;100.00;99588.75;5060394;28;20216;-77
2023/12/10 06:04:52;;;;;;;6.00;2.85;;;;;;;3.97;100.00;99583.59;5068656;28;20173;-77
2023/12/10 06:07:21;;;;;;;4.45;2.97;;;;;;;3.97;100.00;99582.78;5058589;28;20191;-77
2023/12/10 06:09:50;;;;;;;3.30;2.17;;;;;;;3.99;100.00;99583.41;5065073;28;20192;-78
2023/12/10 06:12:18;;;;;;;4.32;3.67;;;;;;;3.92;100.00;99596.72;5066749;28;20205;-78
2023/12/10 06:14:47;;;;;;;5.20;2.47;;;;;;;3.94;100.00;99598.19;5064998;28;20219;-77
2023/12/10 06:17:16;;;;;;;3.28;2.20;;;;;;;3.97;100.00;99601.50;5066557;28;20271;-77
2023/12/10 06:19:46;;;;;;;4.60;4.03;;;;;;;4.01;100.00;99597.44;5066973;28;20196;-78
2023/12/10 06:22:15;;;;;;;3.65;2.70;;;;;;;3.97;100.00;99596.97;5063807;28;20695;-77
2023/12/10 06:24:44;;;;;;;2.58;2.38;;;;;;;3.92;100.00;99604.75;5067063;28;20173;-77
2023/12/10 06:27:13;;;;;;;2.35;2.15;;;;;;;3.89;100.00;99595.25;5055668;28;20292;-78
2023/12/10 06:29:42;;;;;;;5.63;2.40;;;;;;;3.83;100.00;99612.06;5047677;28;20208;-78
2023/12/10 06:32:11;;;;;;;4.50;2.85;;;;;;;3.75;100.00;99614.88;5064734;28;20212;-78
2023/12/10 06:34:40;;;;;;;2.92;2.40;;;;;;;3.72;100.00;99609.91;5053941;28;20308;-77
2023/12/10 06:37:10;;;;;;;4.75;2.83;;;;;;;3.55;100.00;99624.50;5060872;28;20177;-78
2023/12/10 06:39:39;;;;;;;2.97;2.67;;;;;;;3.40;100.00;99624.53;5060006;28;20184;-78
2023/12/10 06:42:08;;;;;;;3.67;3.38;;;;;;;3.42;100.00;99629.69;5063084;28;20245;-78
2023/12/10 06:44:37;;;;;;;4.00;2.25;;;;;;;3.27;100.00;99626.22;5063415;28;20197;-78
2023/12/10 06:47:06;;;;;;;2.75;1.70;;;;;;;3.25;100.00;99626.38;5058484;28;20196;-79
2023/12/10 06:49:35;;;;;;;3.85;2.97;;;;;;;3.20;100.00;99631.47;5067959;28;20196;-78
2023/12/10 06:52:04;;;;;;;4.13;1.77;;;;;;;3.46;100.00;99633.66;5086706;28;20203;-79
2023/12/10 06:54:35;;;;;;;4.57;3.83;;;;;;;3.47;100.00;99632.66;5065715;28;20200;-79
2023/12/10 06:57:04;;;;;;;4.93;3.45;;;;;;;3.64;100.00;99642.09;5065239;28;20176;-79
2023/12/10 06:59:33;;;;;;;6.55;3.22;;;;;;;3.62;100.00;99646.81;5047765;28;20258;-80
2023/12/10 07:02:02;;;;;;;4.45;2.30;;;;;;;3.77;100.00;99647.63;5063875;28;20291;-78
2023/12/10 07:04:31;;;;;;;3.40;2.50;;;;;;;3.84;100.00;99650.34;5047237;28;20193;-78
2023/12/10 07:07:00;;;;;;;3.13;2.17;;;;;;;3.79;100.00;99648.25;5063461;28;20196;-78
2023/12/10 07:09:29;;;;;;;4.60;4.28;;;;;;;3.67;100.00;99641.75;5066658;28;20173;-78
2023/12/10 07:11:59;;;;;;;4.72;2.25;;;;;;;3.70;100.00;99641.34;5064759;28;20775;-77
2023/12/10 07:14:28;;;;;;;5.35;2.35;;;;;;;3.52;100.00;99650.81;5065410;28;20240;-78
2023/12/10 07:16:57;;;;;;;4.32;2.28;;;;;;;3.47;100.00;99654.03;5059562;28;20194;-78
2023/12/10 07:19:26;;;;;;;4.45;3.70;;;;;;;3.34;100.00;99657.34;5068954;28;20276;-77
2023/12/10 07:21:55;;;;;;;3.05;1.88;;;;;;;3.35;100.00;99652.84;5058558;28;20228;-78
2023/12/10 07:24:24;;;;;;;3.00;2.13;;;;;;;3.27;100.00;99658.31;5074411;28;20184;-78
2023/12/10 07:26:53;;;;;;;3.60;2.78;;;;;;;3.27;100.00;99655.63;5088407;28;20180;-78
2023/12/10 07:29:23;;;;;;;4.13;2.20;;;;;;;3.46;100.00;99655.06;5072360;28;20188;-78
2023/12/10 07:31:52;;;;;;;3.50;2.33;;;;;;;3.56;100.00;99658.28;5069285;28;20212;-78
2023/12/10 07:34:21;;;;;;;2.90;2.70;;;;;;;3.89;100.00;99658.66;5068785;28;20200;-78
2023/12/10 07:36:50;;;;;;;3.47;1.83;;;;;;;3.98;100.00;99656.69;5067203;28;20192;-78
2023/12/10 07:39:19;;;;;;;1.88;1.67;;;;;;;3.99;100.00;99653.00;5069052;28;20193;-78
2023/12/10 07:41:48;;;;;;;5.72;3.50;;;;;;;4.14;100.00;99662.63;5065695;28;20225;-79
2023/12/10 07:44:16;;;;;;;4.82;2.75;;;;;;;4.20;100.00;99658.38;5079392;28;20188;-77
2023/12/10 07:46:46;;;;;;;3.20;2.08;;;;;;;4.43;100.00;99666.19;5090440;28;20172;-79
2023/12/10 07:49:15;;;;;;;4.18;2.83;;;;;;;4.53;100.00;99672.88;5068702;28;20169;-80
2023/12/10 07:51:44;;;;;;;2.40;1.70;;;;;;;4.57;100.00;99674.16;5051081;28;20217;-78
2023/12/10 07:54:13;;;;;;;7.95;2.25;;;;;;;4.71;100.00;99677.78;5062082;28;20259;-78
2023/12/10 07:56:41;;;;;;;2.92;2.25;;;;;;;4.74;100.00;99675.53;5072911;28;20204;-79
2023/12/10 07:59:10;;;;;;;2.90;1.90;;;;;;;4.84;100.00;99677.06;5078285;28;20252;-78
2023/12/10 08:01:40;;;;;;;5.20;3.35;;;;;;;4.99;100.00;99680.44;5069358;28;20204;-77
2023/12/10 08:04:10;;;;;;;4.82;2.35;;;;;;;5.01;100.00;99691.81;5068933;28;20201;-78
2023/12/10 08:06:39;;;;;;;3.22;2.60;;;;;;;5.16;100.00;99690.69;5051169;28;20208;-77
2023/12/10 08:09:08;;;;;;;2.70;2.50;;;;;;;5.24;100.00;99693.22;5085572;28;20172;-78
2023/12/10 08:11:37;;;;;;;7.00;5.40;;;;;;;5.23;100.00;99690.72;5073392;28;20266;-78
2023/12/10 08:14:41;;;;;;;2.72;1.77;;;;;;;5.28;100.00;99692.84;5056526;28;20272;-77
2023/12/10 08:17:14;;;;;;;3.40;2.33;;;;;;;5.30;100.00;99694.28;5055520;28;20220;-79
2023/12/10 08:19:59;;;;;;;5.38;2.15;;;;;;;5.38;100.00;99701.34;5055874;28;20246;-81
2023/12/10 08:22:28;;;;;;;4.20;3.80;;;;;;;5.43;100.00;99697.03;5058924;28;20205;-79
2023/12/10 08:24:57;;;;;;;6.65;4.43;;;;;;;5.52;100.00;99703.88;5058802;28;20250;-81
2023/12/10 08:27:26;;;;;;;2.58;1.55;;;;;;;5.65;100.00;99703.97;5058799;28;20263;-79
2023/12/10 08:29:55;;;;;;;13.27;1.65;;;;;;;5.74;100.00;99707.31;5058175;28;20264;-80
2023/12/10 08:32:47;;;;;;;2.15;1.92;;;;;;;5.81;100.00;99710.03;5057723;28;20704;-78
2023/12/10 08:38:28;;;;;;;6.72;2.03;;;;;;;6.15;100.00;99712.66;5057197;28;20231;-79
2023/12/10 08:40:57;;;;;;;5.55;2.72;;;;;;;6.23;100.00;99720.56;5056133;28;20395;-78
2023/12/10 08:43:25;;;;;;;2.45;2.22;;;;;;;6.30;100.00;99715.16;5054909;28;20221;-77
2023/12/10 08:45:55;;;;;;;3.15;1.35;;;;;;;6.24;100.00;99716.84;5073247;28;20188;-77
2023/12/10 08:48:42;;;;;;;2.78;1.15;;;;;;;6.49;100.00;99717.91;5060008;28;20216;-77
2023/12/10 08:56:59;;;;;;;3.15;2.22;;;;;;;6.73;100.00;99721.06;5075691;28;20283;-78
2023/12/10 08:59:28;;;;;;;3.60;1.83;;;;;;;6.80;100.00;99717.31;5079865;28;20196;-80
2023/12/10 09:01:57;;;;;;;1.73;1.63;;;;;;;6.97;100.00;99723.13;5091582;28;20683;-78
2023/12/10 09:04:26;;;;;;;2.55;1.70;;;;;;;6.96;100.00;99729.53;5088340;28;20184;-78
2023/12/10 09:07:17;;;;;;;5.93;3.20;;;;;;;7.02;100.00;99730.56;5089957;28;20202;-79
2023/12/10 09:10:08;;;;;;;2.63;2.15;;;;;;;7.00;100.00;99722.72;5058822;28;20183;-78
2023/12/10 09:13:07;;;;;;;2.45;2.25;;;;;;;7.31;100.00;99733.63;5054989;28;20201;-77
2023/12/10 09:15:36;;;;;;;2.53;1.90;;;;;;;7.37;100.00;99730.13;5054588;28;20205;-76
2023/12/10 09:20:57;;;;;;;2.65;1.63;;;;;;;7.53;100.00;99741.47;5076378;28;20203;-79
2023/12/10 09:23:30;;;;;;;2.72;2.42;;;;;;;7.47;100.00;99742.31;5077243;28;20196;-77
2023/12/10 09:26:16;;;;;;;1.67;1.40;;;;;;;7.58;100.00;99742.50;5077120;28;20196;-81
2023/12/10 09:28:45;;;;;;;1.40;1.13;;;;;;;7.54;100.00;99743.13;5058863;28;20184;-78
2023/12/10 09:31:14;;;;;;;2.58;2.38;;;;;;;7.64;100.00;99743.53;5075073;28;20157;-78
2023/12/10 09:33:43;;;;;;;1.25;1.15;;;;;;;7.48;100.00;99752.03;5057122;28;20211;-78
2023/12/10 09:36:12;;;;;;;5.53;1.50;;;;;;;7.45;100.00;99747.09;5074656;28;20192;-78
2023/12/10 09:38:42;;;;;;;2.15;1.52;;;;;;;7.57;100.00;99746.22;5066534;28;20212;-79
2023/12/10 09:41:52;;;;;;;1.88;1.20;;;;;;;7.68;100.00;99750.16;5038251;28;20201;-81
2023/12/10 10:00:50;;;;;;;4.60;1.00;;;;;;;7.94;100.00;99741.97;5031368;28;20196;-78
2023/12/10 10:03:20;;;;;;;2.17;1.80;;;;;;;8.08;100.00;99748.16;5035078;28;20216;-79
2023/12/10 10:13:52;;;;;;;9.88;1.70;;;;;;;8.20;100.00;99758.03;5051941;28;20703;-79
2023/12/10 10:25:41;;;;;;;2.30;0.77;;;;;;;8.08;100.00;99765.16;5062437;28;20202;-79
2023/12/10 10:28:11;;;;;;;5.97;1.10;;;;;;;8.04;100.00;99758.50;5063301;28;20272;-77
2023/12/10 10:30:40;;;;;;;4.55;2.35;;;;;;;8.04;100.00;99758.50;5065208;28;20652;-79
2023/12/10 10:55:30;;;;;;;3.17;0.60;;;;;;;8.10;100.00;99752.28;5039401;28;20314;-67
2023/12/10 10:58:20;;;;;;;3.00;1.13;;;;;;;8.11;100.00;99756.63;5048147;28;20216;-65
2023/12/10 11:00:51;;;;;;;2.40;1.55;;;;;;;8.15;100.00;99755.16;5047138;28;20196;-67
2023/12/10 11:03:27;;;;;;;4.50;1.10;;;;;;;8.32;100.00;99757.41;5047992;28;20715;-65
2023/12/10 11:05:57;;;;;;;8.48;1.48;;;;;;;8.27;100.00;99753.47;5049269;28;20698;-66
2023/12/10 11:08:29;;;;;;;2.42;1.10;;;;;;;8.25;100.00;99757.41;5044891;28;20208;-65
2023/12/10 11:11:02;;;;;;;14.20;1.77;;;;;;;8.22;100.00;99755.97;5040063;28;20197;-65
2023/12/10 11:13:45;;;;;;;1.52;0.85;;;;;;;8.25;100.00;99765.47;5031093;28;20573;-65
2023/12/10 11:16:14;;;;;;;5.72;1.27;;;;;;;8.17;100.00;99758.47;5041596;28;20704;-66
2023/12/10 11:18:53;;;;;;;15.02;2.40;;;;;;;8.24;100.00;99753.03;5044120;28;20188;-65
2023/12/10 11:21:22;;;;;;;1.20;0.85;;;;;;;8.15;100.00;99748.94;5046477;28;20735;-67
2023/12/10 11:23:52;;;;;;;7.13;1.83;;;;;;;8.06;100.00;99756.44;5054772;28;20225;-67
2023/12/10 11:26:22;;;;;;;4.70;1.58;;;;;;;8.19;100.00;99755.53;5058669;28;20193;-66
2023/12/10 11:28:52;;;;;;;2.65;1.15;;;;;;;8.10;100.00;99749.56;5054655;28;20197;-67
2023/12/10 11:31:21;;;;;;;11.30;2.22;;;;;;;8.00;100.00;99751.06;5050362;28;20262;-65
2023/12/10 11:33:51;;;;;;;2.67;0.85;;;;;;;8.03;100.00;99747.97;5036973;28;20665;-66
2023/12/10 11:36:20;;;;;;;3.22;1.05;;;;;;;8.01;100.00;99748.16;5039310;28;20197;-65
2023/12/10 11:39:11;;;;;;;2.25;1.58;;;;;;;7.86;100.00;99752.97;5043761;28;20276;-66
2023/12/10 11:41:43;;;;;;;1.90;1.40;;;;;;;7.95;100.00;99754.41;5046460;28;20275;-66
2023/12/10 11:44:30;;;;;;;5.50;1.75;;;;;;;7.96;100.00;99750.69;5035679;28;20213;-65
2023/12/10 11:47:04;;;;;;;8.73;2.70;;;;;;;7.96;100.00;99744.47;5045721;28;20740;-64
2023/12/10 11:49:33;;;;;;;4.60;1.60;;;;;;;8.05;100.00;99744.00;5033499;28;20221;-66
2023/12/10 11:52:03;;;;;;;7.03;1.88;;;;;;;8.07;100.00;99741.94;5032975;28;20547;-65
2023/12/10 11:54:36;;;;;;;4.88;3.42;;;;;;;7.93;100.00;99744.91;5036295;28;20305;-65
2023/12/10 11:57:07;;;;;;;4.57;1.40;;;;;;;7.92;100.00;99743.22;5033749;28;20216;-66
2023/12/10 11:59:36;;;;;;;1.40;0.80;;;;;;;7.96;100.00;99741.75;5023344;28;20186;-66
2023/12/10 12:02:04;;;;;;;3.95;1.63;;;;;;;8.02;100.00;99741.75;5026697;28;20271;-66
2023/12/10 12:04:35;;;;;;;0.90;0.70;;;;;;;7.97;100.00;99730.78;5032400;28;20217;-65
2023/12/10 12:07:04;;;;;;;2.00;0.82;;;;;;;7.79;100.00;99730.66;5019357;28;20190;-65
2023/12/10 12:09:33;;;;;;;8.13;2.08;;;;;;;7.81;100.00;99736.63;5030730;28;20738;-66
2023/12/10 12:12:02;;;;;;;1.60;1.20;;;;;;;7.75;100.00;99729.41;5031827;28;20565;-66
2023/12/10 12:14:32;;;;;;;6.68;1.90;;;;;;;7.76;100.00;99717.59;5032773;28;20212;-65
2023/12/10 12:17:04;;;;;;;4.82;3.10;;;;;;;7.85;100.00;99729.78;5027007;28;20252;-66
2023/12/10 12:19:33;;;;;;;2.67;1.00;;;;;;;7.84;100.00;99726.25;5024207;28;20204;-67
2023/12/10 12:22:02;;;;;;;5.50;2.60;;;;;;;7.77;100.00;99713.88;5024995;28;20267;-67
2023/12/10 12:24:31;;;;;;;1.10;0.80;;;;;;;7.77;100.00;99703.91;5026006;28;20218;-65
2023/12/10 12:27:01;;;;;;;0.95;0.80;;;;;;;7.90;100.00;99707.59;5023172;28;20198;-65
2023/12/10 12:29:31;;;;;;;1.70;1.58;;;;;;;7.87;100.00;99706.16;5020578;28;20662;-65
2023/12/10 12:32:00;;;;;;;2.50;1.40;;;;;;;7.96;100.00;99701.34;5027443;28;20194;-64
2023/12/10 12:34:49;;;;;;;1.73;1.10;;;;;;;7.92;100.00;99698.28;5025185;28;20218;-66
2023/12/10 12:37:18;;;;;;;3.35;0.85;;;;;;;7.89;100.00;99704.06;5034534;28;20723;-67
2023/12/10 12:39:47;;;;;;;7.80;1.50;;;;;;;7.80;100.00;99708.88;5028781;28;20243;-65
2023/12/10 12:42:15;;;;;;;2.88;1.38;;;;;;;7.72;100.00;99709.13;5018960;28;20247;-65
2023/12/10 12:44:48;;;;;;;1.92;0.88;;;;;;;7.62;100.00;99699.81;5025089;28;20615;-65
2023/12/10 12:47:17;;;;;;;2.17;1.98;;;;;;;7.61;100.00;99695.47;5032683;28;20189;-66
2023/12/10 12:49:46;;;;;;;0.98;0.82;;;;;;;7.64;100.00;99698.59;5028249;28;20261;-66
2023/12/10 12:52:15;;;;;;;1.38;1.27;;;;;;;7.75;100.00;99702.47;5027886;28;20194;-66
2023/12/10 12:54:44;;;;;;;1.13;0.88;;;;;;;7.67;100.00;99703.53;5028951;28;20225;-68
2023/12/10 12:57:13;;;;;;;4.57;1.35;;;;;;;7.66;100.00;99701.06;5021180;28;20200;-65